sensor_id;sensor_type;location;lat;lon;timestamp;P1;durP1;ratioP1;P2;durP2;ratioP2
19754;SDS011;10036;47.812;9.274;2022-11-24T00:01:26;2.20;;;1.00;;
19754;SDS011;10036;47.812;9.274;2022-11-24T00:03:56;2.90;;;1.17;;
19754;SDS011;10036;47.812;9.274;2022-11-24T00:06:24;1.95;;;1.00;;
19754;SDS011;10036;47.812;9.274;2022-11-24T00:08:52;0.98;;;0.93;;
19754;SDS011;10036;47.812;9.274;2022-11-24T00:11:21;1.95;;;1.00;;
19754;SDS011;10036;47.812;9.274;2022-11-24T00:13:49;1.50;;;0.98;;
19754;SDS011;10036;47.812;9.274;2022-11-24T00:16:18;1.27;;;1.17;;
19754;SDS011;10036;47.812;9.274;2022-11-24T00:18:48;2.83;;;1.10;;
19754;SDS011;10036;47.812;9.274;2022-11-24T00:21:17;1.65;;;1.10;;
19754;SDS011;10036;47.812;9.274;2022-11-24T00:23:45;1.25;;;1.10;;
19754;SDS011;10036;47.812;9.274;2022-11-24T00:26:12;1.50;;;1.10;;
19754;SDS011;10036;47.812;9.274;2022-11-24T00:28:41;1.10;;;1.10;;
19754;SDS011;10036;47.812;9.274;2022-11-24T00:31:15;1.77;;;1.10;;
19754;SDS011;10036;47.812;9.274;2022-11-24T00:33:43;2.25;;;1.73;;
19754;SDS011;10036;47.812;9.274;2022-11-24T00:36:10;3.03;;;1.67;;
19754;SDS011;10036;47.812;9.274;2022-11-24T00:38:39;1.80;;;1.20;;
19754;SDS011;10036;47.812;9.274;2022-11-24T00:41:06;0.95;;;0.93;;
19754;SDS011;10036;47.812;9.274;2022-11-24T00:43:33;1.42;;;1.10;;
19754;SDS011;10036;47.812;9.274;2022-11-24T00:46:00;1.02;;;0.90;;
19754;SDS011;10036;47.812;9.274;2022-11-24T00:48:27;3.88;;;1.40;;
19754;SDS011;10036;47.812;9.274;2022-11-24T00:50:55;1.45;;;1.20;;
19754;SDS011;10036;47.812;9.274;2022-11-24T00:53:23;2.75;;;1.10;;
19754;SDS011;10036;47.812;9.274;2022-11-24T00:55:51;4.72;;;1.48;;
19754;SDS011;10036;47.812;9.274;2022-11-24T00:58:19;1.88;;;1.13;;
19754;SDS011;10036;47.812;9.274;2022-11-24T01:00:46;3.63;;;1.45;;
19754;SDS011;10036;47.812;9.274;2022-11-24T01:03:13;3.10;;;2.08;;
19754;SDS011;10036;47.812;9.274;2022-11-24T01:05:41;5.30;;;2.60;;
19754;SDS011;10036;47.812;9.274;2022-11-24T01:08:08;4.88;;;2.35;;
19754;SDS011;10036;47.812;9.274;2022-11-24T01:10:35;5.15;;;1.75;;
19754;SDS011;10036;47.812;9.274;2022-11-24T01:13:03;2.03;;;1.58;;
19754;SDS011;10036;47.812;9.274;2022-11-24T01:15:33;2.67;;;1.50;;
19754;SDS011;10036;47.812;9.274;2022-11-24T01:18:00;2.17;;;1.30;;
19754;SDS011;10036;47.812;9.274;2022-11-24T01:20:27;2.25;;;1.30;;
19754;SDS011;10036;47.812;9.274;2022-11-24T01:22:54;1.55;;;1.27;;
19754;SDS011;10036;47.812;9.274;2022-11-24T01:25:21;1.83;;;1.10;;
19754;SDS011;10036;47.812;9.274;2022-11-24T01:27:48;3.58;;;1.30;;
19754;SDS011;10036;47.812;9.274;2022-11-24T01:30:16;1.55;;;1.30;;
19754;SDS011;10036;47.812;9.274;2022-11-24T01:32:43;3.45;;;1.80;;
19754;SDS011;10036;47.812;9.274;2022-11-24T01:35:10;4.53;;;1.42;;
19754;SDS011;10036;47.812;9.274;2022-11-24T01:37:36;2.42;;;1.60;;
19754;SDS011;10036;47.812;9.274;2022-11-24T01:40:04;3.53;;;1.52;;
19754;SDS011;10036;47.812;9.274;2022-11-24T01:42:45;1.75;;;1.52;;
19754;SDS011;10036;47.812;9.274;2022-11-24T01:48:06;2.80;;;1.33;;
19754;SDS011;10036;47.812;9.274;2022-11-24T01:50:39;2.25;;;1.58;;
19754;SDS011;10036;47.812;9.274;2022-11-24T01:53:07;2.25;;;1.45;;
19754;SDS011;10036;47.812;9.274;2022-11-24T01:55:35;3.15;;;1.67;;
19754;SDS011;10036;47.812;9.274;2022-11-24T01:58:05;3.60;;;1.40;;
19754;SDS011;10036;47.812;9.274;2022-11-24T02:00:36;1.77;;;1.50;;
19754;SDS011;10036;47.812;9.274;2022-11-24T02:03:06;2.75;;;1.40;;
19754;SDS011;10036;47.812;9.274;2022-11-24T02:05:36;4.38;;;1.80;;
19754;SDS011;10036;47.812;9.274;2022-11-24T02:08:05;2.85;;;1.77;;
19754;SDS011;10036;47.812;9.274;2022-11-24T02:10:43;4.50;;;2.55;;
19754;SDS011;10036;47.812;9.274;2022-11-24T02:13:11;3.72;;;1.98;;
19754;SDS011;10036;47.812;9.274;2022-11-24T02:15:40;7.25;;;2.17;;
19754;SDS011;10036;47.812;9.274;2022-11-24T02:18:07;5.25;;;1.83;;
19754;SDS011;10036;47.812;9.274;2022-11-24T02:20:34;3.13;;;1.60;;
19754;SDS011;10036;47.812;9.274;2022-11-24T02:23:03;4.97;;;2.30;;
19754;SDS011;10036;47.812;9.274;2022-11-24T02:25:38;6.47;;;2.42;;
19754;SDS011;10036;47.812;9.274;2022-11-24T02:28:17;3.40;;;2.05;;
19754;SDS011;10036;47.812;9.274;2022-11-24T02:30:47;4.88;;;2.08;;
19754;SDS011;10036;47.812;9.274;2022-11-24T02:33:14;4.63;;;1.70;;
19754;SDS011;10036;47.812;9.274;2022-11-24T02:35:41;5.68;;;1.90;;
19754;SDS011;10036;47.812;9.274;2022-11-24T02:38:09;2.47;;;2.10;;
19754;SDS011;10036;47.812;9.274;2022-11-24T02:40:37;5.70;;;2.05;;
19754;SDS011;10036;47.812;9.274;2022-11-24T02:43:08;4.90;;;2.17;;
19754;SDS011;10036;47.812;9.274;2022-11-24T02:45:40;2.85;;;2.08;;
19754;SDS011;10036;47.812;9.274;2022-11-24T02:48:07;4.63;;;1.95;;
19754;SDS011;10036;47.812;9.274;2022-11-24T02:50:33;3.60;;;1.70;;
19754;SDS011;10036;47.812;9.274;2022-11-24T02:53:00;4.25;;;1.67;;
19754;SDS011;10036;47.812;9.274;2022-11-24T02:55:27;5.00;;;2.10;;
19754;SDS011;10036;47.812;9.274;2022-11-24T02:57:54;5.60;;;1.98;;
19754;SDS011;10036;47.812;9.274;2022-11-24T03:00:21;4.38;;;1.80;;
19754;SDS011;10036;47.812;9.274;2022-11-24T03:02:50;4.03;;;2.03;;
19754;SDS011;10036;47.812;9.274;2022-11-24T03:05:17;4.53;;;2.10;;
19754;SDS011;10036;47.812;9.274;2022-11-24T03:07:44;2.95;;;1.90;;
19754;SDS011;10036;47.812;9.274;2022-11-24T03:10:11;4.88;;;1.90;;
19754;SDS011;10036;47.812;9.274;2022-11-24T03:12:37;5.05;;;2.00;;
19754;SDS011;10036;47.812;9.274;2022-11-24T03:15:04;6.15;;;2.10;;
19754;SDS011;10036;47.812;9.274;2022-11-24T03:17:32;5.72;;;2.00;;
19754;SDS011;10036;47.812;9.274;2022-11-24T03:20:00;6.82;;;2.40;;
19754;SDS011;10036;47.812;9.274;2022-11-24T03:22:27;3.42;;;2.13;;
19754;SDS011;10036;47.812;9.274;2022-11-24T03:24:54;4.82;;;1.70;;
19754;SDS011;10036;47.812;9.274;2022-11-24T03:27:21;4.97;;;1.92;;
19754;SDS011;10036;47.812;9.274;2022-11-24T03:29:48;5.18;;;1.85;;
19754;SDS011;10036;47.812;9.274;2022-11-24T03:32:14;3.25;;;1.80;;
19754;SDS011;10036;47.812;9.274;2022-11-24T03:34:41;4.85;;;1.83;;
19754;SDS011;10036;47.812;9.274;2022-11-24T03:37:09;5.50;;;2.50;;
19754;SDS011;10036;47.812;9.274;2022-11-24T03:39:36;6.53;;;2.25;;
19754;SDS011;10036;47.812;9.274;2022-11-24T03:42:03;7.75;;;2.50;;
19754;SDS011;10036;47.812;9.274;2022-11-24T03:44:30;8.95;;;2.58;;
19754;SDS011;10036;47.812;9.274;2022-11-24T03:46:57;5.28;;;2.30;;
19754;SDS011;10036;47.812;9.274;2022-11-24T03:49:24;6.70;;;2.70;;
19754;SDS011;10036;47.812;9.274;2022-11-24T03:51:50;7.18;;;2.45;;
19754;SDS011;10036;47.812;9.274;2022-11-24T03:54:19;6.43;;;2.20;;
19754;SDS011;10036;47.812;9.274;2022-11-24T03:56:46;6.78;;;2.53;;
19754;SDS011;10036;47.812;9.274;2022-11-24T03:59:13;7.13;;;2.55;;
19754;SDS011;10036;47.812;9.274;2022-11-24T04:01:39;5.03;;;2.70;;
19754;SDS011;10036;47.812;9.274;2022-11-24T04:04:08;7.28;;;2.97;;
19754;SDS011;10036;47.812;9.274;2022-11-24T04:06:35;4.80;;;2.33;;
19754;SDS011;10036;47.812;9.274;2022-11-24T04:09:02;6.05;;;2.10;;
19754;SDS011;10036;47.812;9.274;2022-11-24T04:11:30;4.82;;;2.45;;
19754;SDS011;10036;47.812;9.274;2022-11-24T04:14:14;8.65;;;2.38;;
19754;SDS011;10036;47.812;9.274;2022-11-24T04:16:42;10.00;;;3.08;;
19754;SDS011;10036;47.812;9.274;2022-11-24T04:19:09;6.28;;;2.65;;
19754;SDS011;10036;47.812;9.274;2022-11-24T04:21:36;4.05;;;2.35;;
19754;SDS011;10036;47.812;9.274;2022-11-24T04:24:03;8.48;;;3.35;;
19754;SDS011;10036;47.812;9.274;2022-11-24T04:26:31;10.55;;;3.10;;
19754;SDS011;10036;47.812;9.274;2022-11-24T04:28:58;7.57;;;2.45;;
19754;SDS011;10036;47.812;9.274;2022-11-24T04:31:25;6.80;;;2.72;;
19754;SDS011;10036;47.812;9.274;2022-11-24T04:33:51;12.27;;;3.08;;
19754;SDS011;10036;47.812;9.274;2022-11-24T04:36:18;8.43;;;3.05;;
19754;SDS011;10036;47.812;9.274;2022-11-24T04:38:45;6.68;;;2.95;;
19754;SDS011;10036;47.812;9.274;2022-11-24T04:41:12;7.05;;;3.30;;
19754;SDS011;10036;47.812;9.274;2022-11-24T04:43:40;7.95;;;2.70;;
19754;SDS011;10036;47.812;9.274;2022-11-24T04:46:07;8.07;;;2.80;;
19754;SDS011;10036;47.812;9.274;2022-11-24T04:48:36;6.72;;;2.70;;
19754;SDS011;10036;47.812;9.274;2022-11-24T04:51:03;8.02;;;2.50;;
19754;SDS011;10036;47.812;9.274;2022-11-24T04:53:30;6.97;;;2.47;;
19754;SDS011;10036;47.812;9.274;2022-11-24T04:55:57;8.55;;;2.63;;
19754;SDS011;10036;47.812;9.274;2022-11-24T04:58:24;5.22;;;2.83;;
19754;SDS011;10036;47.812;9.274;2022-11-24T05:00:52;9.35;;;2.47;;
19754;SDS011;10036;47.812;9.274;2022-11-24T05:03:19;6.90;;;2.78;;
19754;SDS011;10036;47.812;9.274;2022-11-24T05:05:45;9.38;;;2.88;;
19754;SDS011;10036;47.812;9.274;2022-11-24T05:08:12;3.63;;;2.58;;
19754;SDS011;10036;47.812;9.274;2022-11-24T05:10:39;9.27;;;3.08;;
19754;SDS011;10036;47.812;9.274;2022-11-24T05:13:08;6.75;;;2.80;;
19754;SDS011;10036;47.812;9.274;2022-11-24T05:15:36;9.40;;;3.92;;
19754;SDS011;10036;47.812;9.274;2022-11-24T05:18:05;8.15;;;2.70;;
19754;SDS011;10036;47.812;9.274;2022-11-24T05:20:33;6.07;;;2.40;;
19754;SDS011;10036;47.812;9.274;2022-11-24T05:23:00;5.20;;;2.30;;
19754;SDS011;10036;47.812;9.274;2022-11-24T05:25:28;5.57;;;2.22;;
19754;SDS011;10036;47.812;9.274;2022-11-24T05:27:57;5.55;;;2.13;;
19754;SDS011;10036;47.812;9.274;2022-11-24T05:30:25;4.45;;;2.22;;
19754;SDS011;10036;47.812;9.274;2022-11-24T05:32:51;7.28;;;1.90;;
19754;SDS011;10036;47.812;9.274;2022-11-24T05:35:20;8.95;;;2.30;;
19754;SDS011;10036;47.812;9.274;2022-11-24T05:37:48;5.78;;;1.90;;
19754;SDS011;10036;47.812;9.274;2022-11-24T05:40:15;4.78;;;1.95;;
19754;SDS011;10036;47.812;9.274;2022-11-24T05:42:42;6.65;;;2.22;;
19754;SDS011;10036;47.812;9.274;2022-11-24T05:45:10;3.28;;;1.90;;
19754;SDS011;10036;47.812;9.274;2022-11-24T05:47:39;5.45;;;2.00;;
19754;SDS011;10036;47.812;9.274;2022-11-24T05:50:07;4.43;;;2.00;;
19754;SDS011;10036;47.812;9.274;2022-11-24T05:52:36;6.90;;;1.95;;
19754;SDS011;10036;47.812;9.274;2022-11-24T05:55:04;11.18;;;5.00;;
19754;SDS011;10036;47.812;9.274;2022-11-24T05:57:32;10.70;;;4.97;;
19754;SDS011;10036;47.812;9.274;2022-11-24T05:59:59;9.05;;;4.45;;
19754;SDS011;10036;47.812;9.274;2022-11-24T06:02:27;8.27;;;4.45;;
19754;SDS011;10036;47.812;9.274;2022-11-24T06:04:54;10.75;;;4.13;;
19754;SDS011;10036;47.812;9.274;2022-11-24T06:07:21;7.07;;;3.25;;
19754;SDS011;10036;47.812;9.274;2022-11-24T06:09:50;7.97;;;2.78;;
19754;SDS011;10036;47.812;9.274;2022-11-24T06:12:17;8.02;;;3.42;;
19754;SDS011;10036;47.812;9.274;2022-11-24T06:14:44;5.63;;;2.75;;
19754;SDS011;10036;47.812;9.274;2022-11-24T06:17:11;7.82;;;3.00;;
19754;SDS011;10036;47.812;9.274;2022-11-24T06:19:38;6.38;;;2.47;;
19754;SDS011;10036;47.812;9.274;2022-11-24T06:22:05;5.65;;;2.53;;
19754;SDS011;10036;47.812;9.274;2022-11-24T06:24:32;6.07;;;2.72;;
19754;SDS011;10036;47.812;9.274;2022-11-24T06:27:00;6.35;;;2.72;;
19754;SDS011;10036;47.812;9.274;2022-11-24T06:29:27;4.47;;;2.42;;
19754;SDS011;10036;47.812;9.274;2022-11-24T06:31:54;8.25;;;2.25;;
19754;SDS011;10036;47.812;9.274;2022-11-24T06:34:21;6.28;;;2.58;;
19754;SDS011;10036;47.812;9.274;2022-11-24T06:36:47;8.80;;;3.38;;
19754;SDS011;10036;47.812;9.274;2022-11-24T06:39:14;7.63;;;3.08;;
19754;SDS011;10036;47.812;9.274;2022-11-24T06:41:41;4.63;;;2.00;;
19754;SDS011;10036;47.812;9.274;2022-11-24T06:44:09;5.82;;;2.28;;
19754;SDS011;10036;47.812;9.274;2022-11-24T06:46:36;5.28;;;2.30;;
19754;SDS011;10036;47.812;9.274;2022-11-24T06:49:03;5.63;;;2.67;;
19754;SDS011;10036;47.812;9.274;2022-11-24T06:51:30;5.32;;;2.40;;
19754;SDS011;10036;47.812;9.274;2022-11-24T06:53:57;5.57;;;2.72;;
19754;SDS011;10036;47.812;9.274;2022-11-24T06:56:24;6.80;;;2.30;;
19754;SDS011;10036;47.812;9.274;2022-11-24T06:58:51;8.98;;;2.40;;
19754;SDS011;10036;47.812;9.274;2022-11-24T07:01:20;5.57;;;2.22;;
19754;SDS011;10036;47.812;9.274;2022-11-24T07:03:48;8.73;;;2.75;;
19754;SDS011;10036;47.812;9.274;2022-11-24T07:06:16;12.05;;;3.67;;
19754;SDS011;10036;47.812;9.274;2022-11-24T07:08:44;7.90;;;2.58;;
19754;SDS011;10036;47.812;9.274;2022-11-24T07:11:13;8.00;;;2.70;;
19754;SDS011;10036;47.812;9.274;2022-11-24T07:13:41;9.48;;;2.33;;
19754;SDS011;10036;47.812;9.274;2022-11-24T07:16:10;10.05;;;2.80;;
19754;SDS011;10036;47.812;9.274;2022-11-24T07:18:39;4.80;;;2.30;;
19754;SDS011;10036;47.812;9.274;2022-11-24T07:21:06;6.78;;;2.53;;
19754;SDS011;10036;47.812;9.274;2022-11-24T07:23:33;4.68;;;2.05;;
19754;SDS011;10036;47.812;9.274;2022-11-24T07:26:00;5.00;;;2.10;;
19754;SDS011;10036;47.812;9.274;2022-11-24T07:28:28;7.15;;;2.38;;
19754;SDS011;10036;47.812;9.274;2022-11-24T07:30:55;5.95;;;1.95;;
19754;SDS011;10036;47.812;9.274;2022-11-24T07:33:22;10.80;;;2.45;;
19754;SDS011;10036;47.812;9.274;2022-11-24T07:35:51;7.00;;;2.15;;
19754;SDS011;10036;47.812;9.274;2022-11-24T07:38:19;4.53;;;2.45;;
19754;SDS011;10036;47.812;9.274;2022-11-24T07:40:46;5.22;;;2.33;;
19754;SDS011;10036;47.812;9.274;2022-11-24T07:43:12;5.40;;;1.90;;
19754;SDS011;10036;47.812;9.274;2022-11-24T07:45:39;5.07;;;1.83;;
19754;SDS011;10036;47.812;9.274;2022-11-24T07:48:06;3.95;;;2.00;;
19754;SDS011;10036;47.812;9.274;2022-11-24T07:50:34;5.43;;;1.83;;
19754;SDS011;10036;47.812;9.274;2022-11-24T07:53:02;6.18;;;2.17;;
19754;SDS011;10036;47.812;9.274;2022-11-24T07:55:29;6.07;;;2.10;;
19754;SDS011;10036;47.812;9.274;2022-11-24T07:57:57;7.32;;;1.80;;
19754;SDS011;10036;47.812;9.274;2022-11-24T08:00:25;10.52;;;1.80;;
19754;SDS011;10036;47.812;9.274;2022-11-24T08:02:52;4.80;;;1.63;;
19754;SDS011;10036;47.812;9.274;2022-11-24T08:05:19;8.27;;;2.05;;
19754;SDS011;10036;47.812;9.274;2022-11-24T08:07:46;3.90;;;1.70;;
19754;SDS011;10036;47.812;9.274;2022-11-24T08:10:15;7.18;;;1.60;;
19754;SDS011;10036;47.812;9.274;2022-11-24T08:12:42;5.22;;;1.52;;
19754;SDS011;10036;47.812;9.274;2022-11-24T08:15:09;4.40;;;1.55;;
19754;SDS011;10036;47.812;9.274;2022-11-24T08:17:36;3.97;;;1.88;;
19754;SDS011;10036;47.812;9.274;2022-11-24T08:20:03;4.05;;;1.77;;
19754;SDS011;10036;47.812;9.274;2022-11-24T08:22:31;3.75;;;1.65;;
19754;SDS011;10036;47.812;9.274;2022-11-24T08:24:58;5.10;;;1.63;;
19754;SDS011;10036;47.812;9.274;2022-11-24T08:27:28;4.15;;;1.50;;
19754;SDS011;10036;47.812;9.274;2022-11-24T08:29:55;2.80;;;1.65;;
19754;SDS011;10036;47.812;9.274;2022-11-24T08:32:22;8.18;;;1.70;;
19754;SDS011;10036;47.812;9.274;2022-11-24T08:34:49;7.82;;;2.00;;
19754;SDS011;10036;47.812;9.274;2022-11-24T08:37:16;4.95;;;2.17;;
19754;SDS011;10036;47.812;9.274;2022-11-24T08:39:42;6.68;;;2.05;;
19754;SDS011;10036;47.812;9.274;2022-11-24T08:42:09;7.03;;;2.10;;
19754;SDS011;10036;47.812;9.274;2022-11-24T08:44:37;5.05;;;1.95;;
19754;SDS011;10036;47.812;9.274;2022-11-24T08:47:04;4.82;;;2.05;;
19754;SDS011;10036;47.812;9.274;2022-11-24T08:49:31;6.70;;;2.30;;
19754;SDS011;10036;47.812;9.274;2022-11-24T08:51:58;6.18;;;2.00;;
19754;SDS011;10036;47.812;9.274;2022-11-24T08:54:25;7.30;;;2.38;;
19754;SDS011;10036;47.812;9.274;2022-11-24T08:56:52;8.65;;;2.30;;
19754;SDS011;10036;47.812;9.274;2022-11-24T08:59:19;5.32;;;1.98;;
19754;SDS011;10036;47.812;9.274;2022-11-24T09:01:47;8.80;;;2.45;;
19754;SDS011;10036;47.812;9.274;2022-11-24T09:04:14;9.10;;;2.03;;
19754;SDS011;10036;47.812;9.274;2022-11-24T09:06:41;9.52;;;2.30;;
19754;SDS011;10036;47.812;9.274;2022-11-24T09:09:08;5.95;;;2.05;;
19754;SDS011;10036;47.812;9.274;2022-11-24T09:11:35;5.93;;;2.35;;
19754;SDS011;10036;47.812;9.274;2022-11-24T09:14:02;7.68;;;2.03;;
19754;SDS011;10036;47.812;9.274;2022-11-24T09:16:29;7.22;;;1.98;;
19754;SDS011;10036;47.812;9.274;2022-11-24T09:18:58;9.93;;;1.95;;
19754;SDS011;10036;47.812;9.274;2022-11-24T09:21:26;8.57;;;2.22;;
19754;SDS011;10036;47.812;9.274;2022-11-24T09:23:54;7.78;;;2.03;;
19754;SDS011;10036;47.812;9.274;2022-11-24T09:26:23;7.30;;;2.47;;
19754;SDS011;10036;47.812;9.274;2022-11-24T09:28:51;8.73;;;2.10;;
19754;SDS011;10036;47.812;9.274;2022-11-24T09:31:20;8.32;;;1.90;;
19754;SDS011;10036;47.812;9.274;2022-11-24T09:33:48;5.13;;;2.13;;
19754;SDS011;10036;47.812;9.274;2022-11-24T09:36:16;5.90;;;1.70;;
19754;SDS011;10036;47.812;9.274;2022-11-24T09:38:43;7.03;;;1.77;;
19754;SDS011;10036;47.812;9.274;2022-11-24T09:41:20;6.35;;;1.65;;
19754;SDS011;10036;47.812;9.274;2022-11-24T09:43:59;5.18;;;1.63;;
19754;SDS011;10036;47.812;9.274;2022-11-24T09:46:34;6.25;;;2.03;;
19754;SDS011;10036;47.812;9.274;2022-11-24T09:49:08;6.80;;;1.83;;
19754;SDS011;10036;47.812;9.274;2022-11-24T09:51:42;3.55;;;1.63;;
19754;SDS011;10036;47.812;9.274;2022-11-24T09:54:12;3.05;;;1.58;;
19754;SDS011;10036;47.812;9.274;2022-11-24T09:56:41;5.43;;;1.60;;
19754;SDS011;10036;47.812;9.274;2022-11-24T09:59:09;6.43;;;1.90;;
19754;SDS011;10036;47.812;9.274;2022-11-24T10:01:42;4.97;;;2.00;;
19754;SDS011;10036;47.812;9.274;2022-11-24T10:04:12;4.68;;;2.08;;
19754;SDS011;10036;47.812;9.274;2022-11-24T10:06:44;5.68;;;2.70;;
19754;SDS011;10036;47.812;9.274;2022-11-24T10:09:29;3.35;;;1.70;;
19754;SDS011;10036;47.812;9.274;2022-11-24T10:12:20;7.32;;;2.15;;
19754;SDS011;10036;47.812;9.274;2022-11-24T10:21:00;6.97;;;1.95;;
19754;SDS011;10036;47.812;9.274;2022-11-24T10:23:39;6.07;;;1.55;;
19754;SDS011;10036;47.812;9.274;2022-11-24T10:26:19;3.53;;;1.65;;
19754;SDS011;10036;47.812;9.274;2022-11-24T10:28:56;4.90;;;1.73;;
19754;SDS011;10036;47.812;9.274;2022-11-24T10:31:29;6.43;;;2.05;;
19754;SDS011;10036;47.812;9.274;2022-11-24T10:34:00;4.45;;;2.13;;
19754;SDS011;10036;47.812;9.274;2022-11-24T10:36:30;3.30;;;1.60;;
19754;SDS011;10036;47.812;9.274;2022-11-24T10:39:11;3.50;;;1.70;;
19754;SDS011;10036;47.812;9.274;2022-11-24T10:41:45;6.00;;;1.75;;
19754;SDS011;10036;47.812;9.274;2022-11-24T10:44:16;6.20;;;1.98;;
19754;SDS011;10036;47.812;9.274;2022-11-24T10:46:43;5.70;;;1.70;;
19754;SDS011;10036;47.812;9.274;2022-11-24T10:49:12;4.38;;;1.73;;
19754;SDS011;10036;47.812;9.274;2022-11-24T10:51:50;4.38;;;1.63;;
19754;SDS011;10036;47.812;9.274;2022-11-24T10:54:26;5.47;;;1.85;;
19754;SDS011;10036;47.812;9.274;2022-11-24T10:56:54;7.40;;;1.83;;
19754;SDS011;10036;47.812;9.274;2022-11-24T10:59:27;5.22;;;1.58;;
19754;SDS011;10036;47.812;9.274;2022-11-24T11:01:56;4.85;;;1.50;;
19754;SDS011;10036;47.812;9.274;2022-11-24T11:04:24;7.65;;;2.08;;
19754;SDS011;10036;47.812;9.274;2022-11-24T11:07:06;6.85;;;1.70;;
19754;SDS011;10036;47.812;9.274;2022-11-24T11:09:35;5.47;;;2.03;;
19754;SDS011;10036;47.812;9.274;2022-11-24T11:12:08;5.35;;;2.03;;
19754;SDS011;10036;47.812;9.274;2022-11-24T11:14:36;6.18;;;1.65;;
19754;SDS011;10036;47.812;9.274;2022-11-24T11:20:06;2.15;;;1.60;;
19754;SDS011;10036;47.812;9.274;2022-11-24T11:22:43;3.78;;;1.73;;
19754;SDS011;10036;47.812;9.274;2022-11-24T11:25:21;3.53;;;2.30;;
19754;SDS011;10036;47.812;9.274;2022-11-24T11:28:10;4.50;;;1.88;;
19754;SDS011;10036;47.812;9.274;2022-11-24T11:30:57;3.65;;;1.35;;
19754;SDS011;10036;47.812;9.274;2022-11-24T11:33:26;4.95;;;1.60;;
19754;SDS011;10036;47.812;9.274;2022-11-24T11:35:55;2.30;;;1.40;;
19754;SDS011;10036;47.812;9.274;2022-11-24T11:38:33;4.35;;;1.40;;
19754;SDS011;10036;47.812;9.274;2022-11-24T11:41:04;4.35;;;1.25;;
19754;SDS011;10036;47.812;9.274;2022-11-24T11:43:37;3.78;;;1.33;;
19754;SDS011;10036;47.812;9.274;2022-11-24T11:46:08;5.13;;;1.40;;
19754;SDS011;10036;47.812;9.274;2022-11-24T11:48:37;3.75;;;1.50;;
19754;SDS011;10036;47.812;9.274;2022-11-24T11:51:11;3.22;;;1.30;;
19754;SDS011;10036;47.812;9.274;2022-11-24T11:53:52;3.40;;;1.70;;
19754;SDS011;10036;47.812;9.274;2022-11-24T11:56:31;3.33;;;1.50;;
19754;SDS011;10036;47.812;9.274;2022-11-24T11:59:08;3.17;;;1.30;;
19754;SDS011;10036;47.812;9.274;2022-11-24T12:02:08;5.65;;;1.70;;
19754;SDS011;10036;47.812;9.274;2022-11-24T12:04:51;5.20;;;1.52;;
19754;SDS011;10036;47.812;9.274;2022-11-24T12:07:25;5.10;;;1.55;;
19754;SDS011;10036;47.812;9.274;2022-11-24T12:10:11;3.42;;;1.35;;
19754;SDS011;10036;47.812;9.274;2022-11-24T12:12:51;4.28;;;1.55;;
19754;SDS011;10036;47.812;9.274;2022-11-24T12:15:38;3.88;;;1.52;;
19754;SDS011;10036;47.812;9.274;2022-11-24T12:18:13;4.18;;;1.67;;
19754;SDS011;10036;47.812;9.274;2022-11-24T12:20:54;3.33;;;1.60;;
19754;SDS011;10036;47.812;9.274;2022-11-24T12:23:35;5.32;;;1.83;;
19754;SDS011;10036;47.812;9.274;2022-11-24T12:26:18;6.95;;;1.58;;
19754;SDS011;10036;47.812;9.274;2022-11-24T12:28:55;6.30;;;1.70;;
19754;SDS011;10036;47.812;9.274;2022-11-24T12:31:30;5.70;;;1.65;;
19754;SDS011;10036;47.812;9.274;2022-11-24T12:34:13;4.13;;;1.48;;
19754;SDS011;10036;47.812;9.274;2022-11-24T12:36:59;2.80;;;1.60;;
19754;SDS011;10036;47.812;9.274;2022-11-24T12:39:38;4.18;;;1.70;;
19754;SDS011;10036;47.812;9.274;2022-11-24T12:42:11;9.65;;;1.67;;
19754;SDS011;10036;47.812;9.274;2022-11-24T12:44:52;8.73;;;1.52;;
19754;SDS011;10036;47.812;9.274;2022-11-24T12:47:49;5.65;;;1.55;;
19754;SDS011;10036;47.812;9.274;2022-11-24T12:50:25;6.75;;;1.80;;
19754;SDS011;10036;47.812;9.274;2022-11-24T12:52:55;4.18;;;1.77;;
19754;SDS011;10036;47.812;9.274;2022-11-24T12:55:27;6.90;;;2.13;;
19754;SDS011;10036;47.812;9.274;2022-11-24T12:57:57;7.18;;;1.92;;
19754;SDS011;10036;47.812;9.274;2022-11-24T13:00:35;3.65;;;1.63;;
19754;SDS011;10036;47.812;9.274;2022-11-24T13:03:16;9.05;;;2.10;;
19754;SDS011;10036;47.812;9.274;2022-11-24T13:05:53;4.85;;;1.85;;
19754;SDS011;10036;47.812;9.274;2022-11-24T13:08:26;7.22;;;1.90;;
19754;SDS011;10036;47.812;9.274;2022-11-24T13:11:02;4.80;;;1.95;;
19754;SDS011;10036;47.812;9.274;2022-11-24T13:14:01;6.20;;;1.65;;
19754;SDS011;10036;47.812;9.274;2022-11-24T13:16:33;3.65;;;1.50;;
19754;SDS011;10036;47.812;9.274;2022-11-24T13:19:01;4.75;;;1.50;;
19754;SDS011;10036;47.812;9.274;2022-11-24T13:21:45;4.70;;;1.67;;
19754;SDS011;10036;47.812;9.274;2022-11-24T13:24:22;7.07;;;1.70;;
19754;SDS011;10036;47.812;9.274;2022-11-24T13:26:51;3.97;;;1.55;;
19754;SDS011;10036;47.812;9.274;2022-11-24T13:29:30;4.05;;;1.60;;
19754;SDS011;10036;47.812;9.274;2022-11-24T13:35:10;4.93;;;2.08;;
19754;SDS011;10036;47.812;9.274;2022-11-24T13:37:46;4.80;;;1.98;;
19754;SDS011;10036;47.812;9.274;2022-11-24T13:43:23;7.22;;;1.70;;
19754;SDS011;10036;47.812;9.274;2022-11-24T13:45:50;5.38;;;1.65;;
19754;SDS011;10036;47.812;9.274;2022-11-24T13:51:26;4.43;;;1.70;;
19754;SDS011;10036;47.812;9.274;2022-11-24T13:53:53;7.45;;;1.90;;
19754;SDS011;10036;47.812;9.274;2022-11-24T13:56:25;4.45;;;1.60;;
19754;SDS011;10036;47.812;9.274;2022-11-24T13:58:55;5.97;;;1.80;;
19754;SDS011;10036;47.812;9.274;2022-11-24T14:01:24;7.07;;;2.20;;
19754;SDS011;10036;47.812;9.274;2022-11-24T14:04:05;6.20;;;1.90;;
19754;SDS011;10036;47.812;9.274;2022-11-24T14:06:43;5.88;;;2.10;;
19754;SDS011;10036;47.812;9.274;2022-11-24T14:12:05;6.70;;;2.00;;
19754;SDS011;10036;47.812;9.274;2022-11-24T14:14:38;7.20;;;1.75;;
19754;SDS011;10036;47.812;9.274;2022-11-24T14:17:06;5.65;;;1.80;;
19754;SDS011;10036;47.812;9.274;2022-11-24T14:19:40;2.22;;;1.50;;
19754;SDS011;10036;47.812;9.274;2022-11-24T14:22:12;7.80;;;1.85;;
19754;SDS011;10036;47.812;9.274;2022-11-24T14:24:43;8.65;;;1.70;;
19754;SDS011;10036;47.812;9.274;2022-11-24T14:27:12;4.88;;;2.08;;
19754;SDS011;10036;47.812;9.274;2022-11-24T14:29:50;8.32;;;1.80;;
19754;SDS011;10036;47.812;9.274;2022-11-24T14:32:19;5.35;;;1.55;;
19754;SDS011;10036;47.812;9.274;2022-11-24T14:34:46;7.03;;;2.08;;
19754;SDS011;10036;47.812;9.274;2022-11-24T14:37:15;5.93;;;1.70;;
19754;SDS011;10036;47.812;9.274;2022-11-24T14:39:42;5.72;;;1.67;;
19754;SDS011;10036;47.812;9.274;2022-11-24T14:42:14;4.35;;;1.80;;
19754;SDS011;10036;47.812;9.274;2022-11-24T14:44:44;8.20;;;2.13;;
19754;SDS011;10036;47.812;9.274;2022-11-24T14:47:16;4.88;;;1.77;;
19754;SDS011;10036;47.812;9.274;2022-11-24T14:49:47;5.63;;;1.65;;
19754;SDS011;10036;47.812;9.274;2022-11-24T14:52:17;6.15;;;1.75;;
19754;SDS011;10036;47.812;9.274;2022-11-24T14:54:47;4.93;;;1.83;;
19754;SDS011;10036;47.812;9.274;2022-11-24T14:57:22;8.90;;;1.92;;
19754;SDS011;10036;47.812;9.274;2022-11-24T15:02:52;4.82;;;1.85;;
19754;SDS011;10036;47.812;9.274;2022-11-24T15:05:21;6.20;;;2.00;;
19754;SDS011;10036;47.812;9.274;2022-11-24T15:07:58;7.40;;;2.30;;
19754;SDS011;10036;47.812;9.274;2022-11-24T15:10:31;6.93;;;1.98;;
19754;SDS011;10036;47.812;9.274;2022-11-24T15:13:05;5.47;;;2.03;;
19754;SDS011;10036;47.812;9.274;2022-11-24T15:15:44;4.65;;;2.00;;
19754;SDS011;10036;47.812;9.274;2022-11-24T15:18:20;7.13;;;2.10;;
19754;SDS011;10036;47.812;9.274;2022-11-24T15:20:50;6.03;;;2.20;;
19754;SDS011;10036;47.812;9.274;2022-11-24T15:23:23;5.95;;;1.95;;
19754;SDS011;10036;47.812;9.274;2022-11-24T15:25:51;3.17;;;2.00;;
19754;SDS011;10036;47.812;9.274;2022-11-24T15:28:18;5.45;;;2.17;;
19754;SDS011;10036;47.812;9.274;2022-11-24T15:30:49;7.07;;;2.10;;
19754;SDS011;10036;47.812;9.274;2022-11-24T15:33:18;5.70;;;2.20;;